createdAt,value
2022-10-13T00:00:53.113Z,109.63
2022-10-13T00:03:20.785Z,162.15
2022-10-13T00:05:51.287Z,102.68
2022-10-13T00:08:21.479Z,97.57
2022-10-13T00:11:00.404Z,124.05
2022-10-13T00:13:29.238Z,94.68
2022-10-13T00:15:57.053Z,54.20
2022-10-13T00:18:24.828Z,66.05
2022-10-13T00:20:53.848Z,86.13
2022-10-13T00:23:21.979Z,68.13
2022-10-13T00:25:51.374Z,72.43
2022-10-13T00:28:20.793Z,59.22
2022-10-13T00:30:48.836Z,96.35
2022-10-13T00:33:16.486Z,60.83
2022-10-13T00:35:48.332Z,79.85
2022-10-13T00:38:18.708Z,82.93
2022-10-13T00:40:47.459Z,41.13
2022-10-13T00:43:18.566Z,49.90
2022-10-13T00:45:46.692Z,73.33
2022-10-13T00:48:14.389Z,55.83
2022-10-13T00:50:43.441Z,66.55
2022-10-13T00:53:12.892Z,63.05
2022-10-13T00:55:44.184Z,52.28
2022-10-13T00:58:16.294Z,52.47
2022-10-13T01:00:46.197Z,62.03
2022-10-13T01:03:13.749Z,59.80
2022-10-13T01:05:42.637Z,43.00
2022-10-13T01:08:12.151Z,51.22
2022-10-13T01:10:49.273Z,32.77
2022-10-13T01:13:24.444Z,26.88
2022-10-13T01:15:59.524Z,23.33
2022-10-13T01:18:35.847Z,28.63
2022-10-13T01:21:18.238Z,29.60
2022-10-13T01:24:22.164Z,27.23
2022-10-13T01:27:04.723Z,25.95
2022-10-13T01:29:51.431Z,29.63
2022-10-13T01:32:30.776Z,24.30
2022-10-13T01:35:09.163Z,25.35
2022-10-13T01:37:44.540Z,25.03
2022-10-13T01:40:17.461Z,26.30
2022-10-13T01:42:49.183Z,27.02
2022-10-13T01:45:23.010Z,24.85
2022-10-13T01:47:52.339Z,30.35
2022-10-13T01:50:20.274Z,29.77
2022-10-13T01:52:48.992Z,29.27
2022-10-13T01:55:16.471Z,25.40
2022-10-13T01:57:46.148Z,28.90
2022-10-13T02:00:16.703Z,26.73
2022-10-13T02:02:53.506Z,27.37
2022-10-13T02:05:28.166Z,28.65
2022-10-13T02:08:01.011Z,26.65
2022-10-13T02:10:34.300Z,27.40
2022-10-13T02:13:04.750Z,24.48
2022-10-13T02:15:36.110Z,27.63
2022-10-13T02:18:05.648Z,26.58
2022-10-13T02:20:33.435Z,26.33
2022-10-13T02:23:05.034Z,27.27
2022-10-13T02:25:34.668Z,23.98
2022-10-13T02:28:02.928Z,23.77
2022-10-13T02:30:33.050Z,23.60
2022-10-13T02:33:01.061Z,24.45
2022-10-13T02:35:30.926Z,26.13
2022-10-13T02:37:58.310Z,22.77
2022-10-13T02:40:25.864Z,22.07
2022-10-13T02:42:53.626Z,24.67
2022-10-13T02:45:21.581Z,26.77
2022-10-13T02:47:49.045Z,23.80
2022-10-13T02:50:16.882Z,24.52
2022-10-13T02:52:45.643Z,26.97
2022-10-13T02:55:13.060Z,27.95
2022-10-13T02:57:40.485Z,33.58
2022-10-13T03:00:09.179Z,30.65
2022-10-13T03:02:36.624Z,32.63
2022-10-13T03:05:04.322Z,33.63
2022-10-13T03:07:31.735Z,30.13
2022-10-13T03:10:00.503Z,33.28
2022-10-13T03:12:27.972Z,32.40
2022-10-13T03:14:55.388Z,31.23
2022-10-13T03:17:22.818Z,26.07
2022-10-13T03:19:50.223Z,24.33
2022-10-13T03:22:18.355Z,23.65
2022-10-13T03:24:46.078Z,22.58
2022-10-13T03:27:15.636Z,23.65
2022-10-13T03:29:43.041Z,24.37
2022-10-13T03:32:10.736Z,24.13
2022-10-13T03:34:38.197Z,26.25
2022-10-13T03:37:06.205Z,24.20
2022-10-13T03:39:33.768Z,26.27
2022-10-13T03:42:01.330Z,22.63
2022-10-13T03:44:30.172Z,25.85
2022-10-13T03:46:57.736Z,27.20
2022-10-13T03:49:25.120Z,27.10
2022-10-13T03:51:52.516Z,27.40
2022-10-13T03:54:19.922Z,25.37
2022-10-13T03:56:47.444Z,27.75
2022-10-13T03:59:16.789Z,28.10
2022-10-13T04:01:45.524Z,28.38
2022-10-13T04:04:13.202Z,27.50
2022-10-13T04:06:40.672Z,26.50
2022-10-13T04:09:08.092Z,30.38
2022-10-13T04:11:35.511Z,26.85
2022-10-13T04:14:03.016Z,25.17
2022-10-13T04:16:32.148Z,27.98
2022-10-13T04:19:02.539Z,26.67
2022-10-13T04:21:31.664Z,24.60
2022-10-13T04:24:00.350Z,25.13
2022-10-13T04:26:31.115Z,24.58
2022-10-13T04:28:59.259Z,21.65
2022-10-13T04:31:28.924Z,25.37
2022-10-13T04:33:56.409Z,27.90
2022-10-13T04:36:25.851Z,23.42
2022-10-13T04:38:54.669Z,24.38
2022-10-13T04:41:22.867Z,29.85
2022-10-13T04:43:51.469Z,25.47
2022-10-13T04:46:21.575Z,27.45
2022-10-13T04:48:49.051Z,25.25
2022-10-13T04:51:18.369Z,23.38
2022-10-13T04:53:47.654Z,23.20
2022-10-13T04:56:17.430Z,30.97
2022-10-13T04:58:46.715Z,28.00
2022-10-13T05:01:21.188Z,27.65
2022-10-13T05:03:51.838Z,28.75
2022-10-13T05:06:22.262Z,33.00
2022-10-13T05:08:51.338Z,31.37
2022-10-13T05:11:20.480Z,31.75
2022-10-13T05:13:48.321Z,38.78
2022-10-13T05:16:17.199Z,35.15
2022-10-13T05:18:44.972Z,33.00
2022-10-13T05:21:14.427Z,33.00
2022-10-13T05:23:42.596Z,32.30
2022-10-13T05:26:13.338Z,25.67
2022-10-13T05:28:41.347Z,25.80
2022-10-13T05:31:13.181Z,27.25
2022-10-13T05:33:41.227Z,28.43
2022-10-13T05:36:11.743Z,28.52
2022-10-13T05:38:39.591Z,27.52
2022-10-13T05:41:10.223Z,30.35
2022-10-13T05:43:40.199Z,26.10
2022-10-13T05:46:07.964Z,27.90
2022-10-13T05:48:35.955Z,28.27
2022-10-13T05:51:07.651Z,27.15
2022-10-13T05:53:38.615Z,29.15
2022-10-13T05:56:12.364Z,29.33
2022-10-13T05:58:44.444Z,25.40
2022-10-13T06:01:16.006Z,28.88
2022-10-13T06:03:44.900Z,28.92
2022-10-13T06:06:12.397Z,31.02
2022-10-13T06:08:39.810Z,28.48
2022-10-13T06:11:08.159Z,20.93
2022-10-13T06:13:35.818Z,22.02
2022-10-13T06:16:05.028Z,27.98
2022-10-13T06:18:32.478Z,26.35
2022-10-13T06:20:59.910Z,26.05
2022-10-13T06:23:27.340Z,26.70
2022-10-13T06:25:54.860Z,26.08
2022-10-13T06:28:22.681Z,24.20
2022-10-13T06:30:56.360Z,21.58
2022-10-13T06:33:25.937Z,21.55
2022-10-13T06:35:53.637Z,23.63
2022-10-13T06:38:21.096Z,24.05
2022-10-13T06:40:48.738Z,25.70
2022-10-13T06:43:16.145Z,26.75
2022-10-13T06:45:43.543Z,21.20
2022-10-13T06:48:10.939Z,28.23
2022-10-13T06:50:42.877Z,23.63
2022-10-13T06:53:10.545Z,25.92
2022-10-13T06:55:37.957Z,23.40
2022-10-13T06:58:05.377Z,28.60
2022-10-13T07:00:32.825Z,24.03
2022-10-13T07:03:00.291Z,28.85
2022-10-13T07:05:27.683Z,29.05
2022-10-13T07:07:56.618Z,26.33
2022-10-13T07:10:24.042Z,26.02
2022-10-13T07:12:51.538Z,29.37
2022-10-13T07:15:18.951Z,29.30
2022-10-13T07:17:46.342Z,27.80
2022-10-13T07:20:13.744Z,31.70
2022-10-13T07:22:41.151Z,28.38
2022-10-13T07:25:10.856Z,28.47
2022-10-13T07:27:40.671Z,27.30
2022-10-13T07:30:09.800Z,24.02
2022-10-13T07:32:37.310Z,25.45
2022-10-13T07:35:05.110Z,26.48
2022-10-13T07:37:32.556Z,29.67
2022-10-13T07:40:00.302Z,33.83
2022-10-13T07:42:29.039Z,28.90
2022-10-13T07:44:56.446Z,27.13
2022-10-13T07:47:24.246Z,29.17
2022-10-13T07:49:51.682Z,31.03
2022-10-13T07:52:19.395Z,29.65
2022-10-13T07:54:46.919Z,26.95
2022-10-13T07:57:15.126Z,31.13
2022-10-13T07:59:43.891Z,33.75
2022-10-13T08:02:11.358Z,27.50
2022-10-13T08:04:39.004Z,29.88
2022-10-13T08:07:07.156Z,26.35
2022-10-13T08:09:34.940Z,28.17
2022-10-13T08:12:02.394Z,32.33
2022-10-13T08:14:30.221Z,27.17
2022-10-13T08:16:59.362Z,31.08
2022-10-13T08:19:28.220Z,25.40
2022-10-13T08:21:59.286Z,29.17
2022-10-13T08:24:27.820Z,28.02
2022-10-13T08:26:56.403Z,24.10
2022-10-13T08:29:24.507Z,27.27
2022-10-13T08:31:53.093Z,31.50
2022-10-13T08:34:22.543Z,27.48
2022-10-13T08:36:52.720Z,27.48
2022-10-13T08:39:20.172Z,27.10
2022-10-13T08:41:47.876Z,26.70
2022-10-13T08:47:16.561Z,24.63
2022-10-13T08:49:46.159Z,27.30
2022-10-13T08:52:19.707Z,23.17
2022-10-13T08:54:47.988Z,27.80
2022-10-13T08:57:15.681Z,24.38
2022-10-13T08:59:43.145Z,28.35
2022-10-13T09:02:14.611Z,25.52
2022-10-13T09:04:49.202Z,30.10
2022-10-13T09:07:20.417Z,27.15
2022-10-13T09:09:51.815Z,26.13
2022-10-13T09:12:22.120Z,30.05
2022-10-13T09:14:59.587Z,27.02
2022-10-13T09:17:28.068Z,29.03
2022-10-13T09:20:02.690Z,29.55
2022-10-13T09:22:32.373Z,29.60
2022-10-13T09:25:10.775Z,25.60
2022-10-13T09:27:45.816Z,31.10
2022-10-13T09:30:28.680Z,25.20
2022-10-13T09:33:07.496Z,24.20
2022-10-13T09:35:37.009Z,21.10
2022-10-13T09:38:05.114Z,26.88
2022-10-13T09:40:33.437Z,23.15
2022-10-13T09:43:02.711Z,26.73
2022-10-13T09:45:31.006Z,21.52
2022-10-13T09:48:01.393Z,26.70
2022-10-13T09:50:30.993Z,26.38
2022-10-13T09:53:18.432Z,26.92
2022-10-13T09:55:48.451Z,21.80
2022-10-13T09:58:20.710Z,29.08
2022-10-13T10:00:52.094Z,25.67
2022-10-13T10:03:23.722Z,25.55
2022-10-13T10:05:55.499Z,26.55
2022-10-13T10:08:33.694Z,25.70
2022-10-13T10:11:12.876Z,26.40
2022-10-13T10:13:40.296Z,24.88
2022-10-13T10:16:13.263Z,25.45
2022-10-13T10:18:46.195Z,26.85
2022-10-13T10:21:24.735Z,22.20
2022-10-13T10:24:00.775Z,22.23
2022-10-13T10:26:44.694Z,26.70
2022-10-13T10:29:20.540Z,25.77
2022-10-13T10:32:00.193Z,26.48
2022-10-13T10:34:42.394Z,22.13
2022-10-13T10:37:21.454Z,24.48
2022-10-13T10:40:00.690Z,27.38
2022-10-13T10:42:53.011Z,21.50
2022-10-13T10:45:24.526Z,19.55
2022-10-13T10:47:56.969Z,20.13
2022-10-13T10:50:25.155Z,19.40
2022-10-13T10:53:00.898Z,28.13
2022-10-13T10:55:35.588Z,22.20
2022-10-13T10:58:19.459Z,24.77
2022-10-13T11:00:56.492Z,22.83
2022-10-13T11:03:38.364Z,22.65
2022-10-13T11:06:22.213Z,22.67
2022-10-13T11:08:50.407Z,22.70
2022-10-13T11:11:42.086Z,19.83
2022-10-13T11:14:31.824Z,18.20
2022-10-13T11:17:18.851Z,20.58
2022-10-13T11:19:48.583Z,22.35
2022-10-13T11:22:19.622Z,18.75
2022-10-13T11:24:50.315Z,20.73
2022-10-13T11:27:26.788Z,16.87
2022-10-13T11:29:57.732Z,18.50
2022-10-13T11:32:55.522Z,17.75
2022-10-13T11:35:29.580Z,21.30
2022-10-13T11:38:21.752Z,22.65
2022-10-13T11:41:08.419Z,18.37
2022-10-13T11:43:48.115Z,19.60
2022-10-13T11:46:27.510Z,19.42
2022-10-13T11:49:15.692Z,14.52
2022-10-13T11:52:02.020Z,19.67
2022-10-13T11:54:35.356Z,16.07
2022-10-13T11:57:04.542Z,19.17
2022-10-13T11:59:35.233Z,15.82
2022-10-13T12:02:12.199Z,15.50
2022-10-13T12:04:46.507Z,12.95
2022-10-13T12:07:16.558Z,13.43
2022-10-13T12:09:51.197Z,13.35
2022-10-13T12:12:21.341Z,12.30
2022-10-13T12:14:52.408Z,16.70
2022-10-13T12:17:23.979Z,13.98
2022-10-13T12:19:51.724Z,20.93
2022-10-13T12:22:19.154Z,12.85
2022-10-13T12:24:58.877Z,13.80
2022-10-13T12:27:27.322Z,13.30
2022-10-13T12:29:56.193Z,14.43
2022-10-13T12:32:26.104Z,16.03
2022-10-13T12:34:53.768Z,14.55
2022-10-13T12:37:30.767Z,13.18
2022-10-13T12:39:59.557Z,12.93
2022-10-13T12:42:30.524Z,14.05
2022-10-13T12:45:01.215Z,11.00
2022-10-13T12:47:40.875Z,13.68
2022-10-13T12:50:34.116Z,15.63
2022-10-13T12:53:17.779Z,9.57
2022-10-13T12:56:06.412Z,13.27
2022-10-13T12:58:35.692Z,16.17
2022-10-13T13:01:26.296Z,13.68
2022-10-13T13:03:57.009Z,18.23
2022-10-13T13:06:30.932Z,11.13
2022-10-13T13:09:29.490Z,16.73
2022-10-13T13:12:16.587Z,12.73
2022-10-13T13:14:47.303Z,17.48
2022-10-13T13:17:56.595Z,16.92
2022-10-13T13:20:21.680Z,13.50
2022-10-13T13:22:50.600Z,13.60
2022-10-13T13:25:17.990Z,13.93
2022-10-13T13:27:45.394Z,14.07
2022-10-13T13:30:14.885Z,13.95
2022-10-13T13:32:43.698Z,12.48
2022-10-13T13:35:11.736Z,12.75
2022-10-13T13:37:42.505Z,10.90
2022-10-13T13:40:17.314Z,13.80
2022-10-13T13:42:45.015Z,14.32
2022-10-13T13:45:13.970Z,11.13
2022-10-13T13:47:43.376Z,11.25
2022-10-13T13:50:16.953Z,14.43
2022-10-13T13:52:44.388Z,11.43
2022-10-13T13:55:11.791Z,13.13
2022-10-13T13:57:39.196Z,11.43
2022-10-13T14:00:07.911Z,11.20
2022-10-13T14:02:35.458Z,10.83
2022-10-13T14:05:04.905Z,12.80
2022-10-13T14:07:32.668Z,16.90
2022-10-13T14:10:02.024Z,13.07
2022-10-13T14:12:30.324Z,11.93
2022-10-13T14:14:58.379Z,11.33
2022-10-13T14:17:26.244Z,11.85
2022-10-13T14:19:54.679Z,14.50
2022-10-13T14:22:23.733Z,14.20
2022-10-13T14:24:51.338Z,13.27
2022-10-13T14:27:18.770Z,13.50
2022-10-13T14:29:46.185Z,12.55
2022-10-13T14:32:13.650Z,13.18
2022-10-13T14:34:41.062Z,13.30
2022-10-13T14:37:08.465Z,13.93
2022-10-13T14:39:37.298Z,14.67
2022-10-13T14:42:04.776Z,16.38
2022-10-13T14:44:32.208Z,14.93
2022-10-13T14:46:59.624Z,14.23
2022-10-13T14:49:27.119Z,14.20
2022-10-13T14:51:54.589Z,20.23
2022-10-13T14:54:22.028Z,12.93
2022-10-13T14:56:50.795Z,16.13
2022-10-13T14:59:18.439Z,14.70
2022-10-13T15:01:46.395Z,14.00
2022-10-13T15:04:13.844Z,19.90
2022-10-13T15:06:41.355Z,15.50
2022-10-13T15:09:10.159Z,19.25
2022-10-13T15:11:37.815Z,15.07
2022-10-13T15:14:07.365Z,14.50
2022-10-13T15:16:35.003Z,16.33
2022-10-13T15:19:02.440Z,16.65
2022-10-13T15:21:29.907Z,17.70
2022-10-13T15:23:57.745Z,14.88
2022-10-13T15:26:25.236Z,15.52
2022-10-13T15:28:54.252Z,16.53
2022-10-13T15:31:24.339Z,16.80
2022-10-13T15:33:54.085Z,20.13
2022-10-13T15:36:22.697Z,17.92
2022-10-13T15:38:50.438Z,17.27
2022-10-13T15:41:18.378Z,16.07
2022-10-13T15:43:45.766Z,18.15
2022-10-13T15:46:20.981Z,18.20
2022-10-13T15:48:50.614Z,18.75
2022-10-13T15:51:20.304Z,20.80
2022-10-13T15:53:48.179Z,18.53
2022-10-13T15:56:15.628Z,21.33
2022-10-13T15:58:43.614Z,15.15
2022-10-13T16:01:12.755Z,17.90
2022-10-13T16:03:40.860Z,16.83
2022-10-13T16:06:12.377Z,19.63
2022-10-13T16:08:40.655Z,17.50
2022-10-13T16:11:09.491Z,20.05
2022-10-13T16:13:37.065Z,18.88
2022-10-13T16:16:04.552Z,17.92
2022-10-13T16:18:33.139Z,18.70
2022-10-13T16:21:01.148Z,18.15
2022-10-13T16:23:29.875Z,18.92
2022-10-13T16:25:57.268Z,22.05
2022-10-13T16:28:24.747Z,14.35
2022-10-13T16:30:52.170Z,14.63
2022-10-13T16:33:19.586Z,15.48
2022-10-13T16:35:47.001Z,7.75
2022-10-13T16:38:14.427Z,6.70
2022-10-13T16:40:43.192Z,7.78
2022-10-13T16:43:10.585Z,7.10
2022-10-13T16:45:58.521Z,8.05
2022-10-13T16:48:25.468Z,5.50
2022-10-13T16:50:53.011Z,1.95
2022-10-13T16:53:20.723Z,3.90
2022-10-13T16:55:49.731Z,3.80
2022-10-13T16:58:17.436Z,5.97
2022-10-13T17:00:44.976Z,3.50
2022-10-13T17:03:12.411Z,5.80
2022-10-13T17:05:39.823Z,3.63
2022-10-13T17:08:08.222Z,2.63
2022-10-13T17:10:35.988Z,2.70
2022-10-13T17:13:04.755Z,2.20
2022-10-13T17:15:32.174Z,4.70
2022-10-13T17:17:59.579Z,7.05
2022-10-13T17:20:27.001Z,5.30
2022-10-13T17:22:54.559Z,10.38
2022-10-13T17:25:21.944Z,7.97
2022-10-13T17:27:49.421Z,9.82
2022-10-13T17:30:18.198Z,7.45
2022-10-13T17:32:45.639Z,9.10
2022-10-13T17:35:17.778Z,9.93
2022-10-13T17:37:45.286Z,7.75
2022-10-13T17:40:12.989Z,4.75
2022-10-13T17:42:40.393Z,7.05
2022-10-13T17:45:09.058Z,8.53
2022-10-13T17:47:37.824Z,8.77
2022-10-13T17:50:06.070Z,7.63
2022-10-13T17:52:33.552Z,7.75
2022-10-13T17:55:00.927Z,6.30
2022-10-13T17:57:30.468Z,7.00
2022-10-13T17:59:57.872Z,8.77
2022-10-13T18:02:25.341Z,7.93
2022-10-13T18:04:54.077Z,7.72
2022-10-13T18:07:21.836Z,6.40
2022-10-13T18:09:51.704Z,8.53
2022-10-13T18:12:19.216Z,9.05
2022-10-13T18:14:46.629Z,9.88
2022-10-13T18:17:14.037Z,15.95
2022-10-13T18:19:42.154Z,14.40
2022-10-13T18:22:10.993Z,11.93
2022-10-13T18:24:38.483Z,10.85
2022-10-13T18:27:05.882Z,11.07
2022-10-13T18:29:33.267Z,8.73
2022-10-13T18:32:00.663Z,10.98
2022-10-13T18:34:28.100Z,11.60
2022-10-13T18:36:55.941Z,13.60
2022-10-13T18:39:27.149Z,9.73
2022-10-13T18:41:55.841Z,15.38
2022-10-13T18:44:24.917Z,8.48
2022-10-13T18:46:56.263Z,12.67
2022-10-13T18:49:31.609Z,15.18
2022-10-13T18:51:59.475Z,14.32
2022-10-13T18:54:29.459Z,15.73
2022-10-13T18:56:57.258Z,14.27
2022-10-13T18:59:26.394Z,11.87
2022-10-13T19:01:53.778Z,12.38
2022-10-13T19:04:22.166Z,15.35
2022-10-13T19:06:49.741Z,11.57
2022-10-13T19:09:18.014Z,13.00
2022-10-13T19:11:46.762Z,11.33
2022-10-13T19:14:14.689Z,10.15
2022-10-13T19:16:43.894Z,8.90
2022-10-13T19:19:11.475Z,11.95
2022-10-13T19:21:39.768Z,12.60
2022-10-13T19:24:08.127Z,14.73
2022-10-13T19:26:37.731Z,9.77
2022-10-13T19:29:08.726Z,13.10
2022-10-13T19:31:37.376Z,16.77
2022-10-13T19:34:05.462Z,13.23
2022-10-13T19:36:35.299Z,10.30
2022-10-13T19:39:04.662Z,11.40
2022-10-13T19:41:33.726Z,13.93
2022-10-13T19:44:01.691Z,11.38
2022-10-13T19:46:30.496Z,12.40
2022-10-13T19:48:57.936Z,12.07
2022-10-13T19:51:25.371Z,13.13
2022-10-13T19:53:52.868Z,16.20
2022-10-13T19:56:25.739Z,13.38
2022-10-13T19:58:54.357Z,12.50
2022-10-13T20:01:22.241Z,16.83
2022-10-13T20:03:51.563Z,17.42
2022-10-13T20:06:20.458Z,14.77
2022-10-13T20:08:48.313Z,15.70
2022-10-13T20:11:23.078Z,16.52
2022-10-13T20:13:51.514Z,15.20
2022-10-13T20:16:21.458Z,12.75
2022-10-13T20:18:54.225Z,14.20
2022-10-13T20:21:22.241Z,15.02
2022-10-13T20:23:50.586Z,12.85
2022-10-13T20:26:18.484Z,14.80
2022-10-13T20:28:47.534Z,16.83
2022-10-13T20:31:17.146Z,13.07
2022-10-13T20:33:44.639Z,15.00
2022-10-13T20:36:15.528Z,14.45
2022-10-13T20:38:42.997Z,10.87
2022-10-13T20:41:16.774Z,17.08
2022-10-13T20:43:44.272Z,14.88
2022-10-13T20:46:12.242Z,13.43
2022-10-13T20:49:05.533Z,11.95
2022-10-13T20:51:30.365Z,12.57
2022-10-13T20:53:58.341Z,16.75
2022-10-13T20:56:27.643Z,13.25
2022-10-13T20:58:55.287Z,14.32
2022-10-13T21:01:23.723Z,16.23
2022-10-13T21:03:54.874Z,16.57
2022-10-13T21:06:23.834Z,14.20
2022-10-13T21:08:53.096Z,16.52
2022-10-13T21:11:22.188Z,15.85
2022-10-13T21:13:50.470Z,13.38
2022-10-13T21:16:19.653Z,13.43
2022-10-13T21:18:48.890Z,12.57
2022-10-13T21:21:17.993Z,10.35
2022-10-13T21:23:45.948Z,10.18
2022-10-13T21:26:20.394Z,13.23
2022-10-13T21:28:49.141Z,13.40
2022-10-13T21:31:17.333Z,11.90
2022-10-13T21:33:45.458Z,10.10
2022-10-13T21:36:15.023Z,10.57
2022-10-13T21:38:43.337Z,9.98
2022-10-13T21:41:13.016Z,10.40
2022-10-13T21:43:42.136Z,10.63
2022-10-13T21:46:10.631Z,11.35
2022-10-13T21:48:38.171Z,11.23
2022-10-13T21:51:13.663Z,11.07
2022-10-13T21:53:41.388Z,11.40
2022-10-13T21:56:11.427Z,11.68
2022-10-13T21:58:39.205Z,11.05
2022-10-13T22:01:08.129Z,10.32
2022-10-13T22:03:36.147Z,11.40
2022-10-13T22:06:08.012Z,10.53
2022-10-13T22:08:38.913Z,9.48
2022-10-13T22:11:08.005Z,10.77
2022-10-13T22:13:36.726Z,9.13
2022-10-13T22:16:05.316Z,9.27
2022-10-13T22:18:34.109Z,11.13
2022-10-13T22:21:02.912Z,8.85
2022-10-13T22:23:30.530Z,10.13
2022-10-13T22:25:58.201Z,9.65
2022-10-13T22:28:26.184Z,7.82
2022-10-13T22:30:54.001Z,8.03
2022-10-13T22:33:21.531Z,7.95
2022-10-13T22:35:50.286Z,7.05
2022-10-13T22:38:17.729Z,6.28
2022-10-13T22:40:45.146Z,6.55
2022-10-13T22:43:12.807Z,6.17
2022-10-13T22:45:40.216Z,6.93
2022-10-13T22:48:07.628Z,7.63
2022-10-13T22:50:35.447Z,7.63
2022-10-13T22:53:04.191Z,5.35
2022-10-13T22:55:31.593Z,4.47
2022-10-13T22:57:59.030Z,4.30
2022-10-13T23:00:26.469Z,5.32
2022-10-13T23:02:53.899Z,6.47
2022-10-13T23:05:21.294Z,4.82
2022-10-13T23:07:48.713Z,5.33
2022-10-13T23:10:17.854Z,7.13
2022-10-13T23:12:45.301Z,5.57
2022-10-13T23:15:12.731Z,3.55
2022-10-13T23:17:40.127Z,4.88
2022-10-13T23:20:08.876Z,6.00
2022-10-13T23:22:36.272Z,4.55
2022-10-13T23:25:03.741Z,5.60
2022-10-13T23:27:32.533Z,5.63
2022-10-13T23:29:59.941Z,4.65
2022-10-13T23:32:27.444Z,4.57
2022-10-13T23:34:54.884Z,4.30
2022-10-13T23:37:22.734Z,5.53
2022-10-13T23:39:50.645Z,4.78
2022-10-13T23:42:18.049Z,6.22
2022-10-13T23:44:46.847Z,5.90
2022-10-13T23:47:14.266Z,5.45
2022-10-13T23:49:41.680Z,5.70
2022-10-13T23:52:11.058Z,5.15
2022-10-13T23:54:38.703Z,4.57
2022-10-13T23:57:06.112Z,5.20
2022-10-13T23:59:33.532Z,5.65
